createdAt,value
2023-03-26T00:03:30.968Z,22.45
2023-03-26T00:07:30.948Z,22.52
2023-03-26T00:11:31.014Z,22.57
2023-03-26T00:15:31.024Z,22.63
2023-03-26T00:19:31.033Z,22.70
2023-03-26T00:23:31.094Z,22.74
2023-03-26T00:27:31.104Z,22.76
2023-03-26T00:31:31.189Z,22.76
2023-03-26T00:35:31.251Z,22.75
2023-03-26T00:39:31.247Z,22.75
2023-03-26T00:43:31.334Z,22.76
2023-03-26T00:47:31.398Z,22.71
2023-03-26T00:51:31.440Z,22.71
2023-03-26T00:55:31.520Z,22.69
2023-03-26T00:59:31.589Z,22.76
2023-03-26T01:03:31.722Z,22.81
2023-03-26T01:07:31.668Z,22.87
2023-03-26T01:11:31.689Z,22.88
2023-03-26T01:15:31.774Z,22.88
2023-03-26T01:19:31.737Z,22.90
2023-03-26T01:23:31.752Z,22.94
2023-03-26T01:27:31.761Z,23.01
2023-03-26T01:31:31.761Z,23.01
2023-03-26T01:35:31.838Z,23.02
2023-03-26T01:39:31.830Z,23.05
2023-03-26T01:43:31.844Z,23.09
2023-03-26T01:47:31.879Z,23.03
2023-03-26T01:51:31.824Z,23.03
2023-03-26T01:55:31.812Z,23.01
2023-03-26T01:59:31.821Z,23.02
2023-03-26T02:03:31.920Z,22.99
2023-03-26T02:07:31.848Z,22.94
2023-03-26T02:11:35.444Z,22.92
2023-03-26T04:11:31.141Z,22.84
2023-03-26T04:15:31.156Z,22.82
2023-03-26T04:19:31.133Z,22.81
2023-03-26T04:23:31.164Z,22.84
2023-03-26T04:27:31.168Z,22.87
2023-03-26T04:31:31.231Z,22.89
2023-03-26T04:35:31.161Z,22.90
2023-03-26T04:39:31.152Z,22.88
2023-03-26T04:43:31.211Z,22.84
2023-03-26T04:47:31.154Z,22.77
2023-03-26T04:51:31.149Z,22.77
2023-03-26T04:55:31.152Z,22.72
2023-03-26T04:59:31.176Z,22.76
2023-03-26T05:03:31.186Z,22.74
2023-03-26T05:07:31.192Z,22.69
2023-03-26T05:11:31.205Z,22.62
2023-03-26T05:15:31.213Z,22.61
2023-03-26T05:19:31.224Z,22.54
2023-03-26T05:23:31.221Z,22.54
2023-03-26T05:27:31.235Z,22.52
2023-03-26T05:31:31.293Z,22.49
2023-03-26T05:35:31.376Z,22.46
2023-03-26T05:39:31.291Z,22.44
2023-03-26T05:43:31.360Z,22.38
2023-03-26T05:47:31.377Z,22.32
2023-03-26T05:51:31.358Z,22.33
2023-03-26T05:55:31.389Z,22.22
2023-03-26T05:59:31.475Z,22.28
2023-03-26T06:03:31.723Z,22.19
2023-03-26T06:07:31.626Z,22.11
2023-03-26T06:11:31.768Z,22.13
2023-03-26T06:15:31.896Z,22.06
2023-03-26T06:19:31.975Z,21.97
2023-03-26T06:23:32.138Z,21.93
2023-03-26T06:27:32.269Z,21.93
2023-03-26T06:31:32.493Z,21.89
2023-03-26T06:35:32.522Z,21.74
2023-03-26T06:39:32.397Z,21.61
2023-03-26T06:43:32.377Z,21.56
2023-03-26T06:47:32.368Z,21.46
2023-03-26T06:51:32.309Z,21.39
2023-03-26T06:55:32.266Z,21.47
2023-03-26T06:59:32.243Z,21.49
2023-03-26T07:03:32.213Z,21.58
2023-03-26T07:07:32.160Z,21.46
2023-03-26T07:11:32.131Z,21.04
2023-03-26T07:15:32.078Z,20.53
2023-03-26T07:19:32.069Z,20.32
2023-03-26T07:23:32.065Z,20.48
2023-03-26T07:27:32.272Z,20.76
2023-03-26T07:31:32.325Z,21.09
2023-03-26T07:35:32.634Z,21.31
2023-03-26T07:39:32.368Z,21.45
2023-03-26T07:43:32.462Z,21.40
2023-03-26T07:47:32.557Z,20.76
2023-03-26T07:51:32.552Z,20.50
2023-03-26T07:55:32.726Z,20.45
2023-03-26T07:59:32.684Z,20.47
2023-03-26T08:03:32.814Z,20.56
2023-03-26T08:07:32.609Z,20.53
2023-03-26T08:11:32.576Z,20.58
2023-03-26T08:15:32.634Z,20.78
2023-03-26T08:19:32.516Z,20.92
2023-03-26T08:23:32.567Z,20.41
2023-03-26T08:27:32.435Z,20.26
2023-03-26T08:31:32.447Z,20.21
2023-03-26T08:35:32.498Z,20.23
2023-03-26T08:39:32.336Z,20.17
2023-03-26T08:43:32.327Z,20.20
2023-03-26T08:47:32.326Z,20.36
2023-03-26T08:51:32.507Z,20.39
2023-03-26T08:55:32.729Z,20.41
2023-03-26T08:59:32.959Z,20.46
2023-03-26T09:03:32.916Z,20.67
2023-03-26T09:07:32.871Z,20.86
2023-03-26T09:11:32.811Z,20.99
2023-03-26T09:15:32.769Z,21.08
2023-03-26T09:19:32.784Z,21.18
2023-03-26T09:23:32.697Z,21.25
2023-03-26T09:27:32.683Z,21.32
2023-03-26T09:31:32.704Z,21.35
2023-03-26T09:35:32.697Z,21.36
2023-03-26T09:39:32.565Z,21.34
2023-03-26T09:43:32.531Z,21.23
2023-03-26T09:47:32.535Z,21.11
2023-03-26T09:51:32.466Z,21.07
2023-03-26T09:55:32.450Z,21.07
2023-03-26T09:59:32.376Z,21.03
2023-03-26T10:03:32.354Z,21.06
2023-03-26T10:07:32.313Z,21.09
2023-03-26T10:11:32.299Z,21.11
2023-03-26T10:15:32.253Z,21.12
2023-03-26T10:19:32.195Z,21.19
2023-03-26T10:23:32.272Z,21.20
2023-03-26T10:27:32.335Z,21.23
2023-03-26T10:31:32.330Z,21.29
2023-03-26T10:35:32.420Z,21.36
2023-03-26T10:39:36.251Z,21.43
2023-03-26T10:43:33.322Z,21.49
2023-03-26T10:47:32.341Z,21.55
2023-03-26T10:51:32.246Z,21.53
2023-03-26T10:55:32.208Z,21.58
2023-03-26T10:59:32.179Z,21.58
2023-03-26T11:03:32.137Z,21.52
2023-03-26T11:07:32.099Z,21.54
2023-03-26T11:11:32.091Z,21.49
2023-03-26T11:15:32.085Z,21.51
2023-03-26T11:19:32.019Z,21.48
2023-03-26T11:23:31.983Z,21.49
2023-03-26T11:27:31.934Z,21.50
2023-03-26T11:31:31.958Z,21.52
2023-03-26T11:35:40.462Z,21.51
2023-03-26T11:39:32.843Z,21.49
2023-03-26T11:43:31.825Z,21.55
2023-03-26T11:47:31.789Z,21.54
2023-03-26T11:51:31.738Z,21.55
2023-03-26T11:55:31.680Z,21.60
2023-03-26T11:59:32.740Z,21.63
2023-03-26T12:03:31.612Z,21.67
2023-03-26T12:07:31.588Z,21.74
2023-03-26T12:11:33.890Z,21.81
2023-03-26T12:15:31.512Z,21.81
2023-03-26T12:19:31.477Z,21.86
2023-03-26T12:23:31.473Z,21.92
2023-03-26T12:27:31.408Z,21.93
2023-03-26T12:31:31.413Z,21.99
2023-03-26T12:35:31.340Z,22.05
2023-03-26T12:40:07.350Z,22.14
2023-03-26T12:44:53.907Z,22.32
2023-03-26T12:48:00.250Z,22.45
2023-03-26T12:51:32.196Z,22.51
2023-03-26T12:55:31.159Z,22.64
2023-03-26T12:59:31.117Z,22.85
2023-03-26T13:03:31.180Z,23.07
2023-03-26T13:07:31.077Z,23.01
2023-03-26T13:11:31.033Z,23.26
2023-03-26T13:15:30.976Z,23.40
2023-03-26T13:19:30.960Z,23.43
2023-03-26T13:23:30.922Z,23.56
2023-03-26T13:27:30.885Z,23.59
2023-03-26T13:31:31.051Z,23.67
2023-03-26T13:35:31.170Z,23.70
2023-03-26T13:39:31.361Z,23.70
2023-03-26T13:43:31.382Z,23.76
2023-03-26T13:47:31.542Z,23.74
2023-03-26T13:51:31.638Z,23.80
2023-03-26T13:55:31.802Z,23.86
2023-03-26T13:59:31.912Z,23.80
2023-03-26T14:03:32.142Z,23.85
2023-03-26T14:07:32.205Z,23.80
2023-03-26T14:11:32.344Z,23.93
2023-03-26T14:15:32.506Z,23.91
2023-03-26T14:19:32.637Z,23.96
2023-03-26T14:23:32.815Z,24.03
2023-03-26T14:27:32.964Z,24.14
2023-03-26T14:31:33.172Z,24.23
2023-03-26T14:35:33.265Z,24.33
2023-03-26T14:39:33.423Z,24.35
2023-03-26T14:43:33.593Z,24.45
2023-03-26T14:47:33.964Z,24.52
2023-03-26T14:51:33.989Z,24.65
2023-03-26T14:55:34.148Z,24.71
2023-03-26T14:59:34.344Z,24.79
2023-03-26T15:03:34.543Z,24.94
2023-03-26T15:07:34.679Z,24.94
2023-03-26T15:11:34.886Z,25.15
2023-03-26T15:15:35.092Z,25.27
2023-03-26T15:19:35.257Z,25.29
2023-03-26T15:23:35.441Z,25.32
2023-03-26T15:27:35.675Z,25.31
2023-03-26T15:31:35.881Z,25.34
2023-03-26T15:35:36.070Z,25.33
2023-03-26T15:39:36.248Z,25.41
2023-03-26T15:43:36.473Z,25.54
2023-03-26T15:47:36.721Z,25.61
2023-03-26T15:51:46.583Z,25.68
2023-03-26T15:55:37.852Z,25.72
2023-03-26T15:59:36.818Z,25.78
2023-03-26T16:03:36.916Z,25.84
2023-03-26T16:07:37.116Z,25.82
2023-03-26T16:11:37.103Z,25.87
2023-03-26T16:15:37.105Z,25.87
2023-03-26T16:19:37.026Z,25.92
2023-03-26T16:23:47.201Z,26.05
2023-03-26T16:27:38.135Z,26.11
2023-03-26T16:31:39.241Z,26.22
2023-03-26T16:35:37.600Z,26.21
2023-03-26T16:39:37.507Z,26.25
2023-03-26T16:43:37.472Z,26.26
2023-03-26T16:47:37.459Z,26.35
2023-03-26T16:51:37.408Z,26.38
2023-03-26T16:55:37.400Z,26.42
2023-03-26T16:59:37.325Z,26.40
2023-03-26T17:03:37.455Z,26.44
2023-03-26T17:07:37.243Z,26.40
2023-03-26T17:11:37.270Z,26.53
2023-03-26T17:15:37.221Z,26.49
2023-03-26T17:19:37.229Z,26.56
2023-03-26T17:23:39.659Z,26.58
2023-03-26T17:27:37.123Z,26.61
2023-03-26T17:31:37.150Z,26.61
2023-03-26T17:35:37.098Z,26.70
2023-03-26T17:39:37.000Z,26.65
2023-03-26T17:43:36.961Z,26.73
2023-03-26T17:47:36.948Z,26.70
2023-03-26T17:51:36.898Z,26.76
2023-03-26T17:55:36.877Z,26.80
2023-03-26T17:59:38.784Z,26.76
2023-03-26T18:03:36.829Z,26.71
2023-03-26T18:07:36.756Z,26.78
2023-03-26T18:11:36.700Z,26.76
2023-03-26T18:15:36.687Z,26.80
2023-03-26T18:19:36.635Z,26.85
2023-03-26T18:23:36.603Z,26.87
2023-03-26T18:27:36.570Z,26.82
2023-03-26T18:31:36.548Z,26.72
2023-03-26T18:35:36.523Z,26.68
2023-03-26T18:39:36.445Z,26.71
2023-03-26T18:43:44.475Z,26.78
2023-03-26T18:47:37.391Z,26.80
2023-03-26T18:51:43.202Z,26.85
2023-03-26T18:55:37.303Z,26.83
2023-03-26T18:59:36.326Z,26.80
2023-03-26T19:03:36.289Z,26.73
2023-03-26T19:07:36.176Z,26.69
2023-03-26T19:11:36.307Z,26.62
2023-03-26T19:15:36.450Z,26.54
2023-03-26T19:19:36.603Z,26.50
2023-03-26T19:23:36.753Z,26.53
2023-03-26T19:27:36.962Z,26.57
2023-03-26T19:31:37.189Z,26.64
2023-03-26T19:35:37.246Z,26.61
2023-03-26T19:39:37.811Z,26.56
2023-03-26T19:43:37.525Z,26.51
2023-03-26T19:47:48.466Z,26.42
2023-03-26T19:51:38.657Z,26.40
2023-03-26T19:55:37.599Z,26.33
2023-03-26T19:59:37.735Z,26.23
2023-03-26T20:03:38.234Z,26.22
2023-03-26T20:07:38.067Z,26.11
2023-03-26T20:11:38.182Z,26.00
2023-03-26T20:15:38.325Z,25.96
2023-03-26T20:19:38.428Z,25.82
2023-03-26T20:23:38.541Z,25.76
2023-03-26T20:27:38.650Z,25.70
2023-03-26T20:31:38.770Z,25.66
2023-03-26T20:35:38.920Z,25.65
2023-03-26T20:39:39.073Z,25.56
2023-03-26T20:43:39.196Z,25.46
2023-03-26T20:47:39.322Z,25.35
2023-03-26T20:51:39.451Z,25.32
2023-03-26T20:55:41.134Z,25.23
2023-03-26T20:59:39.801Z,25.24
2023-03-26T21:03:39.793Z,25.14
2023-03-26T21:07:39.919Z,25.12
2023-03-26T21:11:40.024Z,25.05
2023-03-26T21:15:40.186Z,24.99
2023-03-26T21:19:40.267Z,24.96
2023-03-26T21:23:40.309Z,24.79
2023-03-26T21:27:40.408Z,24.79
2023-03-26T21:31:40.530Z,24.69
2023-03-26T21:35:40.630Z,24.70
2023-03-26T21:39:40.551Z,24.63
2023-03-26T21:43:40.635Z,24.65
2023-03-26T21:47:40.734Z,24.64
2023-03-26T21:51:40.708Z,24.56
2023-03-26T21:55:40.749Z,24.60
2023-03-26T21:59:40.749Z,24.55
2023-03-26T22:03:40.797Z,24.52
2023-03-26T22:07:40.798Z,24.52
2023-03-26T22:11:40.799Z,24.45
2023-03-26T22:15:40.814Z,24.42
2023-03-26T22:19:40.793Z,24.23
2023-03-26T22:23:40.850Z,24.22
2023-03-26T22:27:44.163Z,24.12
2023-03-26T22:31:40.911Z,24.15
2023-03-26T22:35:40.825Z,24.04
2023-03-26T22:39:40.757Z,23.94
2023-03-26T22:43:40.704Z,24.02
2023-03-26T22:47:40.675Z,23.96
2023-03-26T22:51:40.619Z,23.86
2023-03-26T22:55:40.585Z,23.87
2023-03-26T22:59:40.541Z,23.91
2023-03-26T23:03:40.522Z,23.89
2023-03-26T23:07:40.475Z,23.91
2023-03-26T23:11:40.430Z,23.85
2023-03-26T23:15:40.398Z,23.89
2023-03-26T23:19:40.369Z,23.84
2023-03-26T23:23:40.320Z,23.77
2023-03-26T23:27:40.329Z,23.75
2023-03-26T23:31:40.304Z,23.65
2023-03-26T23:35:40.209Z,23.74
2023-03-26T23:39:40.191Z,23.66
2023-03-26T23:43:40.147Z,23.69
2023-03-26T23:47:41.132Z,23.68
2023-03-26T23:51:40.093Z,23.63
2023-03-26T23:55:40.046Z,23.56
2023-03-26T23:59:39.985Z,23.50
